sensor_id;sensor_type;location;lat;lon;timestamp;temperature;humidity
28654;DHT22;24320;56.980;24.336;2022-10-30T00:01:38;11.40;99.90
28654;DHT22;24320;56.980;24.336;2022-10-30T00:04:05;11.40;99.90
28654;DHT22;24320;56.980;24.336;2022-10-30T00:06:32;11.40;99.90
28654;DHT22;24320;56.980;24.336;2022-10-30T00:08:58;11.40;99.90
28654;DHT22;24320;56.980;24.336;2022-10-30T00:11:25;11.40;99.90
28654;DHT22;24320;56.980;24.336;2022-10-30T00:13:52;11.30;99.90
28654;DHT22;24320;56.980;24.336;2022-10-30T00:16:20;11.30;99.90
28654;DHT22;24320;56.980;24.336;2022-10-30T00:18:47;11.10;99.90
28654;DHT22;24320;56.980;24.336;2022-10-30T00:21:14;11.10;99.90
28654;DHT22;24320;56.980;24.336;2022-10-30T00:23:46;11.00;99.90
28654;DHT22;24320;56.980;24.336;2022-10-30T00:26:14;10.90;99.90
28654;DHT22;24320;56.980;24.336;2022-10-30T00:28:41;10.80;99.90
28654;DHT22;24320;56.980;24.336;2022-10-30T00:31:08;10.70;99.90
28654;DHT22;24320;56.980;24.336;2022-10-30T00:33:35;10.60;99.90
28654;DHT22;24320;56.980;24.336;2022-10-30T00:36:02;10.60;99.90
28654;DHT22;24320;56.980;24.336;2022-10-30T00:38:30;10.50;99.90
28654;DHT22;24320;56.980;24.336;2022-10-30T00:40:57;10.40;99.90
28654;DHT22;24320;56.980;24.336;2022-10-30T00:46:04;10.30;99.90
28654;DHT22;24320;56.980;24.336;2022-10-30T00:48:33;10.20;99.90
28654;DHT22;24320;56.980;24.336;2022-10-30T00:51:00;10.10;99.90
28654;DHT22;24320;56.980;24.336;2022-10-30T00:53:29;10.00;99.90
28654;DHT22;24320;56.980;24.336;2022-10-30T00:55:58;10.00;99.90
28654;DHT22;24320;56.980;24.336;2022-10-30T00:58:30;10.00;99.90
28654;DHT22;24320;56.980;24.336;2022-10-30T01:01:00;9.90;99.90
28654;DHT22;24320;56.980;24.336;2022-10-30T01:03:28;10.00;99.90
28654;DHT22;24320;56.980;24.336;2022-10-30T01:05:59;10.00;99.90
28654;DHT22;24320;56.980;24.336;2022-10-30T01:08:26;10.00;99.90
28654;DHT22;24320;56.980;24.336;2022-10-30T01:10:55;9.90;99.90
28654;DHT22;24320;56.980;24.336;2022-10-30T01:13:24;9.80;99.90
28654;DHT22;24320;56.980;24.336;2022-10-30T01:16:06;9.80;99.90
28654;DHT22;24320;56.980;24.336;2022-10-30T01:19:02;9.80;99.90
28654;DHT22;24320;56.980;24.336;2022-10-30T01:21:43;9.80;99.90
28654;DHT22;24320;56.980;24.336;2022-10-30T01:35:45;9.80;99.90
28654;DHT22;24320;56.980;24.336;2022-10-30T01:38:30;9.90;99.90
28654;DHT22;24320;56.980;24.336;2022-10-30T01:40:58;9.90;99.90
28654;DHT22;24320;56.980;24.336;2022-10-30T01:43:25;9.90;99.90
28654;DHT22;24320;56.980;24.336;2022-10-30T01:54:22;10.00;99.90
28654;DHT22;24320;56.980;24.336;2022-10-30T02:00:12;10.00;99.90
28654;DHT22;24320;56.980;24.336;2022-10-30T02:02:40;9.90;99.90
28654;DHT22;24320;56.980;24.336;2022-10-30T02:05:09;9.90;99.90
28654;DHT22;24320;56.980;24.336;2022-10-30T02:07:37;9.80;99.90
28654;DHT22;24320;56.980;24.336;2022-10-30T02:10:04;9.80;99.90
28654;DHT22;24320;56.980;24.336;2022-10-30T02:12:32;9.70;99.90
28654;DHT22;24320;56.980;24.336;2022-10-30T02:14:59;9.80;99.90
28654;DHT22;24320;56.980;24.336;2022-10-30T02:17:27;9.80;99.90
28654;DHT22;24320;56.980;24.336;2022-10-30T02:19:54;9.80;99.90
28654;DHT22;24320;56.980;24.336;2022-10-30T02:22:21;9.80;99.90
28654;DHT22;24320;56.980;24.336;2022-10-30T02:24:48;9.70;99.90
28654;DHT22;24320;56.980;24.336;2022-10-30T02:27:15;9.70;99.90
28654;DHT22;24320;56.980;24.336;2022-10-30T02:29:42;9.50;99.90
28654;DHT22;24320;56.980;24.336;2022-10-30T02:32:09;9.40;99.90
28654;DHT22;24320;56.980;24.336;2022-10-30T02:34:36;9.30;99.90
28654;DHT22;24320;56.980;24.336;2022-10-30T02:37:03;9.30;99.90
28654;DHT22;24320;56.980;24.336;2022-10-30T02:39:29;9.30;99.90
28654;DHT22;24320;56.980;24.336;2022-10-30T02:41:56;9.20;99.90
28654;DHT22;24320;56.980;24.336;2022-10-30T02:44:23;9.10;99.90
28654;DHT22;24320;56.980;24.336;2022-10-30T02:46:50;9.10;99.90
28654;DHT22;24320;56.980;24.336;2022-10-30T02:49:17;9.00;99.90
28654;DHT22;24320;56.980;24.336;2022-10-30T02:51:44;9.00;99.90
28654;DHT22;24320;56.980;24.336;2022-10-30T02:54:11;9.00;99.90
28654;DHT22;24320;56.980;24.336;2022-10-30T02:56:40;8.90;99.90
28654;DHT22;24320;56.980;24.336;2022-10-30T02:59:07;8.90;99.90
28654;DHT22;24320;56.980;24.336;2022-10-30T03:01:34;8.80;99.90
28654;DHT22;24320;56.980;24.336;2022-10-30T03:04:01;8.80;99.90
28654;DHT22;24320;56.980;24.336;2022-10-30T03:06:28;8.70;99.90
28654;DHT22;24320;56.980;24.336;2022-10-30T03:08:55;8.60;99.90
28654;DHT22;24320;56.980;24.336;2022-10-30T03:11:22;8.50;99.90
28654;DHT22;24320;56.980;24.336;2022-10-30T03:13:49;8.50;99.90
28654;DHT22;24320;56.980;24.336;2022-10-30T03:16:19;8.40;99.90
28654;DHT22;24320;56.980;24.336;2022-10-30T03:18:46;8.40;99.90
28654;DHT22;24320;56.980;24.336;2022-10-30T03:21:16;8.30;99.90
28654;DHT22;24320;56.980;24.336;2022-10-30T03:23:44;8.30;99.90
28654;DHT22;24320;56.980;24.336;2022-10-30T03:26:11;8.30;99.90
28654;DHT22;24320;56.980;24.336;2022-10-30T03:31:15;8.20;99.90
28654;DHT22;24320;56.980;24.336;2022-10-30T03:33:43;8.30;99.90
28654;DHT22;24320;56.980;24.336;2022-10-30T03:36:11;8.20;99.90
28654;DHT22;24320;56.980;24.336;2022-10-30T03:38:38;8.20;99.90
28654;DHT22;24320;56.980;24.336;2022-10-30T03:41:05;8.20;99.90
28654;DHT22;24320;56.980;24.336;2022-10-30T03:43:32;8.20;99.90
28654;DHT22;24320;56.980;24.336;2022-10-30T03:45:59;8.20;99.90
28654;DHT22;24320;56.980;24.336;2022-10-30T03:48:27;8.20;99.90
28654;DHT22;24320;56.980;24.336;2022-10-30T03:50:56;8.30;99.90
28654;DHT22;24320;56.980;24.336;2022-10-30T03:53:24;8.30;99.90
28654;DHT22;24320;56.980;24.336;2022-10-30T03:55:55;8.40;99.90
28654;DHT22;24320;56.980;24.336;2022-10-30T03:58:23;8.40;99.90
28654;DHT22;24320;56.980;24.336;2022-10-30T04:00:49;8.30;99.90
28654;DHT22;24320;56.980;24.336;2022-10-30T04:03:16;8.30;99.90
28654;DHT22;24320;56.980;24.336;2022-10-30T04:05:43;8.40;99.90
28654;DHT22;24320;56.980;24.336;2022-10-30T04:08:12;8.40;99.90
28654;DHT22;24320;56.980;24.336;2022-10-30T04:10:44;8.50;99.90
28654;DHT22;24320;56.980;24.336;2022-10-30T04:13:12;8.60;99.90
28654;DHT22;24320;56.980;24.336;2022-10-30T04:15:40;8.60;99.90
28654;DHT22;24320;56.980;24.336;2022-10-30T04:18:09;8.50;99.90
28654;DHT22;24320;56.980;24.336;2022-10-30T04:20:36;8.50;99.90
28654;DHT22;24320;56.980;24.336;2022-10-30T04:23:05;8.40;99.90
28654;DHT22;24320;56.980;24.336;2022-10-30T04:25:33;8.40;99.90
28654;DHT22;24320;56.980;24.336;2022-10-30T04:28:01;8.40;99.90
28654;DHT22;24320;56.980;24.336;2022-10-30T04:30:28;8.40;99.90
28654;DHT22;24320;56.980;24.336;2022-10-30T04:32:57;8.40;99.90
28654;DHT22;24320;56.980;24.336;2022-10-30T04:35:26;8.40;99.90
28654;DHT22;24320;56.980;24.336;2022-10-30T04:37:56;8.40;99.90
28654;DHT22;24320;56.980;24.336;2022-10-30T04:40:24;8.40;99.90
28654;DHT22;24320;56.980;24.336;2022-10-30T04:42:51;8.40;99.90
28654;DHT22;24320;56.980;24.336;2022-10-30T04:45:19;8.30;99.90
28654;DHT22;24320;56.980;24.336;2022-10-30T04:47:46;8.30;99.90
28654;DHT22;24320;56.980;24.336;2022-10-30T04:50:13;8.30;99.90
28654;DHT22;24320;56.980;24.336;2022-10-30T04:52:40;8.20;99.90
28654;DHT22;24320;56.980;24.336;2022-10-30T04:55:09;8.20;99.90
28654;DHT22;24320;56.980;24.336;2022-10-30T04:57:36;8.10;99.90
28654;DHT22;24320;56.980;24.336;2022-10-30T05:00:05;8.20;99.90
28654;DHT22;24320;56.980;24.336;2022-10-30T05:02:35;8.10;99.90
28654;DHT22;24320;56.980;24.336;2022-10-30T05:05:03;8.10;99.90
28654;DHT22;24320;56.980;24.336;2022-10-30T05:07:30;8.00;99.90
28654;DHT22;24320;56.980;24.336;2022-10-30T05:09:57;8.00;99.90
28654;DHT22;24320;56.980;24.336;2022-10-30T05:12:24;8.00;99.90
28654;DHT22;24320;56.980;24.336;2022-10-30T05:14:51;8.00;99.90
28654;DHT22;24320;56.980;24.336;2022-10-30T05:17:17;8.00;99.90
28654;DHT22;24320;56.980;24.336;2022-10-30T05:19:44;8.00;99.90
28654;DHT22;24320;56.980;24.336;2022-10-30T05:22:11;8.00;99.90
28654;DHT22;24320;56.980;24.336;2022-10-30T05:24:38;8.10;99.90
28654;DHT22;24320;56.980;24.336;2022-10-30T05:27:05;8.10;99.90
28654;DHT22;24320;56.980;24.336;2022-10-30T05:29:32;8.10;99.90
28654;DHT22;24320;56.980;24.336;2022-10-30T05:31:59;8.00;99.90
28654;DHT22;24320;56.980;24.336;2022-10-30T05:34:26;7.90;99.90
28654;DHT22;24320;56.980;24.336;2022-10-30T05:36:53;7.90;99.90
28654;DHT22;24320;56.980;24.336;2022-10-30T05:39:20;7.80;99.90
28654;DHT22;24320;56.980;24.336;2022-10-30T05:41:46;7.80;99.90
28654;DHT22;24320;56.980;24.336;2022-10-30T05:44:13;7.80;99.90
28654;DHT22;24320;56.980;24.336;2022-10-30T05:46:54;7.90;99.90
28654;DHT22;24320;56.980;24.336;2022-10-30T05:49:26;7.90;99.90
28654;DHT22;24320;56.980;24.336;2022-10-30T05:51:52;8.00;99.90
28654;DHT22;24320;56.980;24.336;2022-10-30T05:54:19;8.00;99.90
28654;DHT22;24320;56.980;24.336;2022-10-30T05:56:46;8.10;99.90
28654;DHT22;24320;56.980;24.336;2022-10-30T05:59:13;8.20;99.90
28654;DHT22;24320;56.980;24.336;2022-10-30T06:01:40;8.20;99.90
28654;DHT22;24320;56.980;24.336;2022-10-30T06:04:07;8.30;99.90
28654;DHT22;24320;56.980;24.336;2022-10-30T06:06:34;8.40;99.90
28654;DHT22;24320;56.980;24.336;2022-10-30T06:09:01;8.40;99.90
28654;DHT22;24320;56.980;24.336;2022-10-30T06:11:27;8.50;99.90
28654;DHT22;24320;56.980;24.336;2022-10-30T06:13:54;8.50;99.90
28654;DHT22;24320;56.980;24.336;2022-10-30T06:16:21;8.50;99.90
28654;DHT22;24320;56.980;24.336;2022-10-30T06:18:49;8.60;99.90
28654;DHT22;24320;56.980;24.336;2022-10-30T06:21:17;8.60;99.90
28654;DHT22;24320;56.980;24.336;2022-10-30T06:23:43;8.50;99.90
28654;DHT22;24320;56.980;24.336;2022-10-30T06:26:10;8.50;99.90
28654;DHT22;24320;56.980;24.336;2022-10-30T06:28:37;8.60;99.90
28654;DHT22;24320;56.980;24.336;2022-10-30T06:31:04;8.60;99.90
28654;DHT22;24320;56.980;24.336;2022-10-30T06:33:31;8.60;99.90
28654;DHT22;24320;56.980;24.336;2022-10-30T06:35:58;8.70;99.90
28654;DHT22;24320;56.980;24.336;2022-10-30T06:38:25;8.90;99.90
28654;DHT22;24320;56.980;24.336;2022-10-30T06:40:52;9.30;99.90
28654;DHT22;24320;56.980;24.336;2022-10-30T06:43:19;9.80;99.90
28654;DHT22;24320;56.980;24.336;2022-10-30T06:45:46;10.20;99.90
28654;DHT22;24320;56.980;24.336;2022-10-30T06:48:13;10.50;99.90
28654;DHT22;24320;56.980;24.336;2022-10-30T06:50:40;10.60;99.90
28654;DHT22;24320;56.980;24.336;2022-10-30T06:53:07;10.60;99.90
28654;DHT22;24320;56.980;24.336;2022-10-30T06:55:34;10.70;99.90
28654;DHT22;24320;56.980;24.336;2022-10-30T06:58:00;10.70;99.90
28654;DHT22;24320;56.980;24.336;2022-10-30T07:00:28;10.70;99.90
28654;DHT22;24320;56.980;24.336;2022-10-30T07:02:59;10.70;99.90
28654;DHT22;24320;56.980;24.336;2022-10-30T07:05:27;10.80;99.90
28654;DHT22;24320;56.980;24.336;2022-10-30T07:07:57;10.80;99.90
28654;DHT22;24320;56.980;24.336;2022-10-30T07:10:24;10.60;99.90
28654;DHT22;24320;56.980;24.336;2022-10-30T07:12:52;10.50;99.90
28654;DHT22;24320;56.980;24.336;2022-10-30T07:15:20;10.40;99.90
28654;DHT22;24320;56.980;24.336;2022-10-30T07:17:57;10.40;99.90
28654;DHT22;24320;56.980;24.336;2022-10-30T07:20:27;10.50;99.90
28654;DHT22;24320;56.980;24.336;2022-10-30T07:22:54;10.60;99.90
28654;DHT22;24320;56.980;24.336;2022-10-30T07:25:23;10.60;99.90
28654;DHT22;24320;56.980;24.336;2022-10-30T07:27:55;10.50;99.90
28654;DHT22;24320;56.980;24.336;2022-10-30T07:30:24;10.40;99.90
28654;DHT22;24320;56.980;24.336;2022-10-30T07:33:01;10.30;99.90
28654;DHT22;24320;56.980;24.336;2022-10-30T07:35:30;10.30;99.90
28654;DHT22;24320;56.980;24.336;2022-10-30T07:38:09;10.30;99.90
28654;DHT22;24320;56.980;24.336;2022-10-30T07:40:37;10.30;99.90
28654;DHT22;24320;56.980;24.336;2022-10-30T07:43:04;10.30;99.90
28654;DHT22;24320;56.980;24.336;2022-10-30T07:45:32;10.20;99.90
28654;DHT22;24320;56.980;24.336;2022-10-30T07:47:59;10.20;99.90
28654;DHT22;24320;56.980;24.336;2022-10-30T07:50:26;10.30;99.90
28654;DHT22;24320;56.980;24.336;2022-10-30T07:52:54;10.40;99.90
28654;DHT22;24320;56.980;24.336;2022-10-30T07:55:21;10.50;99.90
28654;DHT22;24320;56.980;24.336;2022-10-30T07:57:48;10.60;99.90
28654;DHT22;24320;56.980;24.336;2022-10-30T08:00:16;10.70;99.90
28654;DHT22;24320;56.980;24.336;2022-10-30T08:02:43;10.70;99.90
28654;DHT22;24320;56.980;24.336;2022-10-30T08:05:10;10.80;99.90
28654;DHT22;24320;56.980;24.336;2022-10-30T08:07:37;10.80;99.90
28654;DHT22;24320;56.980;24.336;2022-10-30T08:10:06;10.70;99.90
28654;DHT22;24320;56.980;24.336;2022-10-30T08:12:33;10.70;99.90
28654;DHT22;24320;56.980;24.336;2022-10-30T08:15:01;10.70;99.90
28654;DHT22;24320;56.980;24.336;2022-10-30T08:17:28;10.70;99.90
28654;DHT22;24320;56.980;24.336;2022-10-30T08:19:55;10.70;99.90
28654;DHT22;24320;56.980;24.336;2022-10-30T08:22:23;10.70;99.90
28654;DHT22;24320;56.980;24.336;2022-10-30T08:24:50;10.80;99.90
28654;DHT22;24320;56.980;24.336;2022-10-30T08:27:17;10.90;99.90
28654;DHT22;24320;56.980;24.336;2022-10-30T08:29:44;10.90;99.90
28654;DHT22;24320;56.980;24.336;2022-10-30T08:32:11;10.90;99.90
28654;DHT22;24320;56.980;24.336;2022-10-30T08:34:38;10.80;99.90
28654;DHT22;24320;56.980;24.336;2022-10-30T08:37:05;10.90;99.90
28654;DHT22;24320;56.980;24.336;2022-10-30T08:39:33;10.90;99.90
28654;DHT22;24320;56.980;24.336;2022-10-30T08:42:00;10.90;99.90
28654;DHT22;24320;56.980;24.336;2022-10-30T08:44:27;10.80;99.90
28654;DHT22;24320;56.980;24.336;2022-10-30T08:46:54;10.90;99.90
28654;DHT22;24320;56.980;24.336;2022-10-30T08:49:21;10.80;99.90
28654;DHT22;24320;56.980;24.336;2022-10-30T08:51:48;10.80;99.90
28654;DHT22;24320;56.980;24.336;2022-10-30T08:54:17;10.80;99.90
28654;DHT22;24320;56.980;24.336;2022-10-30T08:56:44;10.90;99.90
28654;DHT22;24320;56.980;24.336;2022-10-30T08:59:11;11.00;99.90
28654;DHT22;24320;56.980;24.336;2022-10-30T09:01:44;11.10;99.90
28654;DHT22;24320;56.980;24.336;2022-10-30T09:04:11;11.10;99.90
28654;DHT22;24320;56.980;24.336;2022-10-30T09:06:38;10.90;99.90
28654;DHT22;24320;56.980;24.336;2022-10-30T09:09:05;10.80;99.90
28654;DHT22;24320;56.980;24.336;2022-10-30T09:11:32;10.80;99.90
28654;DHT22;24320;56.980;24.336;2022-10-30T09:13:59;10.90;99.90
28654;DHT22;24320;56.980;24.336;2022-10-30T09:16:25;11.00;99.90
28654;DHT22;24320;56.980;24.336;2022-10-30T09:18:52;11.20;99.90
28654;DHT22;24320;56.980;24.336;2022-10-30T09:21:19;11.50;99.90
28654;DHT22;24320;56.980;24.336;2022-10-30T09:23:46;11.80;99.90
28654;DHT22;24320;56.980;24.336;2022-10-30T09:26:13;12.00;99.90
28654;DHT22;24320;56.980;24.336;2022-10-30T09:31:24;12.20;99.90
28654;DHT22;24320;56.980;24.336;2022-10-30T09:33:51;12.10;99.90
28654;DHT22;24320;56.980;24.336;2022-10-30T09:36:21;11.90;99.90
28654;DHT22;24320;56.980;24.336;2022-10-30T09:38:48;11.80;99.90
28654;DHT22;24320;56.980;24.336;2022-10-30T09:52:52;11.40;99.90
28654;DHT22;24320;56.980;24.336;2022-10-30T09:58:27;11.50;99.90
28654;DHT22;24320;56.980;24.336;2022-10-30T10:07:41;11.50;99.90
28654;DHT22;24320;56.980;24.336;2022-10-30T10:09:42;11.40;99.90
28654;DHT22;24320;56.980;24.336;2022-10-30T10:12:29;11.30;99.90
28654;DHT22;24320;56.980;24.336;2022-10-30T10:15:01;11.10;99.90
28654;DHT22;24320;56.980;24.336;2022-10-30T10:17:36;11.00;99.90
28654;DHT22;24320;56.980;24.336;2022-10-30T10:20:10;11.10;99.90
28654;DHT22;24320;56.980;24.336;2022-10-30T10:22:46;11.20;99.90
28654;DHT22;24320;56.980;24.336;2022-10-30T10:25:16;11.20;99.90
28654;DHT22;24320;56.980;24.336;2022-10-30T10:36:04;11.00;99.90
28654;DHT22;24320;56.980;24.336;2022-10-30T10:41:27;10.80;99.90
28654;DHT22;24320;56.980;24.336;2022-10-30T10:52:34;10.70;99.90
28654;DHT22;24320;56.980;24.336;2022-10-30T10:55:03;10.70;99.90
28654;DHT22;24320;56.980;24.336;2022-10-30T10:57:33;11.00;99.90
28654;DHT22;24320;56.980;24.336;2022-10-30T11:00:28;11.20;99.90
28654;DHT22;24320;56.980;24.336;2022-10-30T11:03:22;11.40;99.90
28654;DHT22;24320;56.980;24.336;2022-10-30T11:08:36;11.20;99.90
28654;DHT22;24320;56.980;24.336;2022-10-30T11:11:05;11.20;99.90
28654;DHT22;24320;56.980;24.336;2022-10-30T11:13:42;11.10;99.90
28654;DHT22;24320;56.980;24.336;2022-10-30T11:18:56;10.90;99.90
28654;DHT22;24320;56.980;24.336;2022-10-30T11:21:26;10.80;99.90
28654;DHT22;24320;56.980;24.336;2022-10-30T11:23:54;10.70;99.90
28654;DHT22;24320;56.980;24.336;2022-10-30T11:26:24;10.70;99.90
28654;DHT22;24320;56.980;24.336;2022-10-30T11:31:35;10.90;99.90
28654;DHT22;24320;56.980;24.336;2022-10-30T11:36:46;11.10;99.90
28654;DHT22;24320;56.980;24.336;2022-10-30T11:39:22;11.10;99.90
28654;DHT22;24320;56.980;24.336;2022-10-30T11:41:58;11.20;99.90
28654;DHT22;24320;56.980;24.336;2022-10-30T11:44:38;11.30;99.90
28654;DHT22;24320;56.980;24.336;2022-10-30T11:47:08;11.40;99.90
28654;DHT22;24320;56.980;24.336;2022-10-30T11:49:53;11.40;99.90
28654;DHT22;24320;56.980;24.336;2022-10-30T11:52:23;11.30;99.90
28654;DHT22;24320;56.980;24.336;2022-10-30T11:55:07;11.00;99.90
28654;DHT22;24320;56.980;24.336;2022-10-30T11:57:44;10.80;99.90
28654;DHT22;24320;56.980;24.336;2022-10-30T12:00:24;10.70;99.90
28654;DHT22;24320;56.980;24.336;2022-10-30T12:02:53;10.70;99.90
28654;DHT22;24320;56.980;24.336;2022-10-30T12:05:38;10.70;99.90
28654;DHT22;24320;56.980;24.336;2022-10-30T12:10:43;10.90;99.90
28654;DHT22;24320;56.980;24.336;2022-10-30T12:13:14;10.90;99.90
28654;DHT22;24320;56.980;24.336;2022-10-30T12:15:42;11.10;99.90
28654;DHT22;24320;56.980;24.336;2022-10-30T12:18:20;11.20;99.90
28654;DHT22;24320;56.980;24.336;2022-10-30T12:20:52;11.40;99.90
28654;DHT22;24320;56.980;24.336;2022-10-30T12:23:21;11.40;99.90
28654;DHT22;24320;56.980;24.336;2022-10-30T12:25:58;11.50;99.90
28654;DHT22;24320;56.980;24.336;2022-10-30T12:28:30;11.50;99.90
28654;DHT22;24320;56.980;24.336;2022-10-30T12:33:49;11.50;99.90
28654;DHT22;24320;56.980;24.336;2022-10-30T12:36:27;11.50;99.90
28654;DHT22;24320;56.980;24.336;2022-10-30T12:42:14;11.30;99.90
28654;DHT22;24320;56.980;24.336;2022-10-30T12:44:43;11.10;99.90
28654;DHT22;24320;56.980;24.336;2022-10-30T12:50:05;10.80;99.90
28654;DHT22;24320;56.980;24.336;2022-10-30T12:52:52;10.70;99.90
28654;DHT22;24320;56.980;24.336;2022-10-30T12:55:54;10.50;99.90
28654;DHT22;24320;56.980;24.336;2022-10-30T13:01:31;10.40;99.90
28654;DHT22;24320;56.980;24.336;2022-10-30T13:04:14;10.30;99.90
28654;DHT22;24320;56.980;24.336;2022-10-30T13:07:03;10.30;99.90
28654;DHT22;24320;56.980;24.336;2022-10-30T13:09:39;10.20;99.90
28654;DHT22;24320;56.980;24.336;2022-10-30T13:12:15;10.20;99.90
28654;DHT22;24320;56.980;24.336;2022-10-30T13:14:48;10.20;99.90
28654;DHT22;24320;56.980;24.336;2022-10-30T13:17:17;10.20;99.90
28654;DHT22;24320;56.980;24.336;2022-10-30T13:19:45;10.10;99.90
28654;DHT22;24320;56.980;24.336;2022-10-30T13:22:34;10.10;99.90
28654;DHT22;24320;56.980;24.336;2022-10-30T13:25:19;10.00;99.90
28654;DHT22;24320;56.980;24.336;2022-10-30T13:27:57;10.00;99.90
28654;DHT22;24320;56.980;24.336;2022-10-30T13:30:34;10.00;99.90
28654;DHT22;24320;56.980;24.336;2022-10-30T13:33:15;10.00;99.90
28654;DHT22;24320;56.980;24.336;2022-10-30T13:35:48;10.00;99.90
28654;DHT22;24320;56.980;24.336;2022-10-30T13:46:49;10.10;99.90
28654;DHT22;24320;56.980;24.336;2022-10-30T13:57:25;9.90;99.90
28654;DHT22;24320;56.980;24.336;2022-10-30T14:00:19;9.90;99.90
28654;DHT22;24320;56.980;24.336;2022-10-30T14:11:15;9.90;99.90
28654;DHT22;24320;56.980;24.336;2022-10-30T14:13:52;9.90;99.90
28654;DHT22;24320;56.980;24.336;2022-10-30T14:17:31;9.90;99.90
28654;DHT22;24320;56.980;24.336;2022-10-30T14:22:39;9.80;99.90
28654;DHT22;24320;56.980;24.336;2022-10-30T14:25:14;9.80;99.90
28654;DHT22;24320;56.980;24.336;2022-10-30T14:27:41;9.80;99.90
28654;DHT22;24320;56.980;24.336;2022-10-30T14:30:26;9.80;99.90
28654;DHT22;24320;56.980;24.336;2022-10-30T14:32:54;9.70;99.90
28654;DHT22;24320;56.980;24.336;2022-10-30T14:35:33;9.70;99.90
28654;DHT22;24320;56.980;24.336;2022-10-30T14:43:26;9.60;99.90
28654;DHT22;24320;56.980;24.336;2022-10-30T14:45:59;9.60;99.90
28654;DHT22;24320;56.980;24.336;2022-10-30T14:48:29;9.60;99.90
28654;DHT22;24320;56.980;24.336;2022-10-30T14:51:11;9.60;99.90
28654;DHT22;24320;56.980;24.336;2022-10-30T14:56:34;9.50;99.90
28654;DHT22;24320;56.980;24.336;2022-10-30T15:09:52;9.40;99.90
28654;DHT22;24320;56.980;24.336;2022-10-30T15:15:11;9.20;99.90
28654;DHT22;24320;56.980;24.336;2022-10-30T15:17:50;9.20;99.90
28654;DHT22;24320;56.980;24.336;2022-10-30T15:20:24;9.20;99.90
28654;DHT22;24320;56.980;24.336;2022-10-30T15:22:54;9.20;99.90
28654;DHT22;24320;56.980;24.336;2022-10-30T15:25:26;9.20;99.90
28654;DHT22;24320;56.980;24.336;2022-10-30T15:27:56;9.20;99.90
28654;DHT22;24320;56.980;24.336;2022-10-30T15:30:25;9.10;99.90
28654;DHT22;24320;56.980;24.336;2022-10-30T15:32:53;9.10;99.90
28654;DHT22;24320;56.980;24.336;2022-10-30T15:35:25;9.00;99.90
28654;DHT22;24320;56.980;24.336;2022-10-30T15:38:08;9.10;99.90
28654;DHT22;24320;56.980;24.336;2022-10-30T15:40:36;9.10;99.90
28654;DHT22;24320;56.980;24.336;2022-10-30T15:43:06;9.10;99.90
28654;DHT22;24320;56.980;24.336;2022-10-30T15:45:37;9.10;99.90
28654;DHT22;24320;56.980;24.336;2022-10-30T15:50:44;9.20;99.90
28654;DHT22;24320;56.980;24.336;2022-10-30T15:53:19;9.20;99.90
28654;DHT22;24320;56.980;24.336;2022-10-30T15:55:48;9.20;99.90
28654;DHT22;24320;56.980;24.336;2022-10-30T15:58:19;9.20;99.90
28654;DHT22;24320;56.980;24.336;2022-10-30T16:00:59;9.20;99.90
28654;DHT22;24320;56.980;24.336;2022-10-30T16:03:27;9.20;99.90
28654;DHT22;24320;56.980;24.336;2022-10-30T16:06:15;9.20;99.90
28654;DHT22;24320;56.980;24.336;2022-10-30T16:08:45;9.20;99.90
28654;DHT22;24320;56.980;24.336;2022-10-30T16:13:42;9.10;99.90
28654;DHT22;24320;56.980;24.336;2022-10-30T16:16:26;9.10;99.90
28654;DHT22;24320;56.980;24.336;2022-10-30T16:18:59;9.00;99.90
28654;DHT22;24320;56.980;24.336;2022-10-30T16:21:27;9.00;99.90
28654;DHT22;24320;56.980;24.336;2022-10-30T16:23:58;9.00;99.90
28654;DHT22;24320;56.980;24.336;2022-10-30T16:26:34;9.00;99.90
28654;DHT22;24320;56.980;24.336;2022-10-30T16:29:19;9.00;99.90
28654;DHT22;24320;56.980;24.336;2022-10-30T16:31:49;9.00;99.90
28654;DHT22;24320;56.980;24.336;2022-10-30T16:34:37;9.00;99.90
28654;DHT22;24320;56.980;24.336;2022-10-30T16:37:11;9.00;99.90
28654;DHT22;24320;56.980;24.336;2022-10-30T16:39:40;9.00;99.90
28654;DHT22;24320;56.980;24.336;2022-10-30T16:42:22;8.90;99.90
28654;DHT22;24320;56.980;24.336;2022-10-30T16:48:17;8.90;99.90
28654;DHT22;24320;56.980;24.336;2022-10-30T16:50:45;8.90;99.90
28654;DHT22;24320;56.980;24.336;2022-10-30T16:53:21;8.90;99.90
28654;DHT22;24320;56.980;24.336;2022-10-30T16:55:49;8.90;99.90
28654;DHT22;24320;56.980;24.336;2022-10-30T16:58:18;8.90;99.90
28654;DHT22;24320;56.980;24.336;2022-10-30T17:00:52;8.90;99.90
28654;DHT22;24320;56.980;24.336;2022-10-30T17:03:22;9.00;99.90
28654;DHT22;24320;56.980;24.336;2022-10-30T17:06:06;9.00;99.90
28654;DHT22;24320;56.980;24.336;2022-10-30T17:08:42;9.00;99.90
28654;DHT22;24320;56.980;24.336;2022-10-30T17:13:55;9.00;99.90
28654;DHT22;24320;56.980;24.336;2022-10-30T17:16:34;8.90;99.90
28654;DHT22;24320;56.980;24.336;2022-10-30T17:21:59;8.70;99.90
28654;DHT22;24320;56.980;24.336;2022-10-30T17:24:31;8.70;99.90
28654;DHT22;24320;56.980;24.336;2022-10-30T17:27:00;8.60;99.90
28654;DHT22;24320;56.980;24.336;2022-10-30T17:32:10;8.50;99.90
28654;DHT22;24320;56.980;24.336;2022-10-30T17:34:39;8.40;99.90
28654;DHT22;24320;56.980;24.336;2022-10-30T17:37:06;8.40;99.90
28654;DHT22;24320;56.980;24.336;2022-10-30T17:39:33;8.40;99.90
28654;DHT22;24320;56.980;24.336;2022-10-30T17:42:00;8.30;99.90
28654;DHT22;24320;56.980;24.336;2022-10-30T17:44:33;8.30;99.90
28654;DHT22;24320;56.980;24.336;2022-10-30T17:47:12;8.20;99.90
28654;DHT22;24320;56.980;24.336;2022-10-30T17:49:39;8.20;99.90
28654;DHT22;24320;56.980;24.336;2022-10-30T17:52:12;8.10;99.90
28654;DHT22;24320;56.980;24.336;2022-10-30T17:54:40;8.00;99.90
28654;DHT22;24320;56.980;24.336;2022-10-30T17:57:12;8.00;99.90
28654;DHT22;24320;56.980;24.336;2022-10-30T17:59:39;7.90;99.90
28654;DHT22;24320;56.980;24.336;2022-10-30T18:02:18;7.80;99.90
28654;DHT22;24320;56.980;24.336;2022-10-30T18:04:46;7.80;99.90
28654;DHT22;24320;56.980;24.336;2022-10-30T18:07:14;7.70;99.90
28654;DHT22;24320;56.980;24.336;2022-10-30T18:09:42;7.60;99.90
28654;DHT22;24320;56.980;24.336;2022-10-30T18:12:15;7.60;99.90
28654;DHT22;24320;56.980;24.336;2022-10-30T18:14:42;7.50;99.90
28654;DHT22;24320;56.980;24.336;2022-10-30T18:19:48;7.50;99.90
28654;DHT22;24320;56.980;24.336;2022-10-30T18:22:16;7.40;99.90
28654;DHT22;24320;56.980;24.336;2022-10-30T18:24:43;7.40;99.90
28654;DHT22;24320;56.980;24.336;2022-10-30T18:27:10;7.30;99.90
28654;DHT22;24320;56.980;24.336;2022-10-30T18:29:37;7.20;99.90
28654;DHT22;24320;56.980;24.336;2022-10-30T18:32:05;7.10;99.90